createdAt,value
2019-02-18T00:00:32.795Z,2.20
2019-02-18T00:05:38.970Z,2.10
2019-02-18T00:10:44.486Z,2.10
2019-02-18T00:15:50.989Z,2.00
2019-02-18T00:20:56.426Z,1.90
2019-02-18T00:26:02.222Z,1.90
2019-02-18T00:31:07.649Z,1.80
2019-02-18T00:36:13.122Z,1.80
2019-02-18T00:41:18.665Z,1.70
2019-02-18T00:46:24.823Z,1.70
2019-02-18T00:51:30.299Z,1.60
2019-02-18T00:56:35.767Z,1.50
2019-02-18T01:01:41.271Z,1.40
2019-02-18T01:06:47.132Z,1.40
2019-02-18T01:11:52.685Z,1.30
2019-02-18T01:16:58.120Z,1.20
2019-02-18T01:22:03.990Z,1.20
2019-02-18T01:27:09.559Z,1.10
2019-02-18T01:32:15.019Z,1.10
2019-02-18T01:37:20.848Z,1.00
2019-02-18T01:42:26.338Z,0.90
2019-02-18T01:47:32.479Z,0.80
2019-02-18T01:52:37.954Z,0.60
2019-02-18T01:57:43.410Z,0.80
2019-02-18T02:02:48.870Z,0.60
2019-02-18T02:07:56.634Z,0.60
2019-02-18T02:13:17.267Z,0.60
2019-02-18T02:18:22.739Z,0.40
2019-02-18T02:23:28.571Z,0.40
2019-02-18T02:28:34.067Z,0.40
2019-02-18T02:33:39.527Z,0.40
2019-02-18T02:38:44.987Z,0.30
2019-02-18T02:43:50.814Z,0.20
2019-02-18T02:48:56.315Z,0.10
2019-02-18T02:54:02.244Z,0.10
2019-02-18T02:59:07.683Z,0.10
2019-02-18T03:04:13.476Z,0.00
2019-02-18T03:09:18.931Z,0.00
2019-02-18T03:14:24.491Z,-0.10
2019-02-18T03:19:29.931Z,-0.20
2019-02-18T03:24:35.769Z,-0.20
2019-02-18T03:30:01.425Z,-0.20
2019-02-18T03:35:07.662Z,-0.30
2019-02-18T03:40:13.520Z,-0.20
2019-02-18T03:45:19.311Z,-0.30
2019-02-18T03:50:24.796Z,-0.40
2019-02-18T03:55:30.344Z,-0.50
2019-02-18T04:00:35.816Z,-0.50
2019-02-18T04:05:41.290Z,-0.60
2019-02-18T04:10:46.765Z,-0.60
2019-02-18T04:15:52.215Z,-0.70
2019-02-18T04:20:57.796Z,-0.70
2019-02-18T04:26:03.280Z,-0.60
2019-02-18T04:31:09.091Z,-0.70
2019-02-18T04:36:14.568Z,-0.80
2019-02-18T04:41:20.058Z,-0.90
2019-02-18T04:46:25.554Z,-0.90
2019-02-18T04:51:31.362Z,-0.80
2019-02-18T04:56:36.836Z,-0.90
2019-02-18T05:01:42.319Z,-0.90
2019-02-18T05:06:47.818Z,-1.00
2019-02-18T05:11:53.340Z,-1.10
2019-02-18T05:16:59.162Z,-1.00
2019-02-18T05:22:04.687Z,-1.10
2019-02-18T05:27:10.147Z,-1.20
2019-02-18T05:32:16.309Z,-1.20
2019-02-18T05:37:21.780Z,-1.20
2019-02-18T05:42:27.601Z,-1.20
2019-02-18T05:47:33.062Z,-1.30
2019-02-18T05:52:38.914Z,-1.30
2019-02-18T05:57:44.383Z,-1.30
2019-02-18T06:02:49.884Z,-1.30
2019-02-18T06:07:55.691Z,-1.40
2019-02-18T06:13:01.535Z,-1.50
2019-02-18T06:18:07.047Z,-1.50
2019-02-18T06:23:12.565Z,-1.50
2019-02-18T06:28:18.053Z,-1.50
2019-02-18T06:33:23.529Z,-1.60
2019-02-18T06:38:29.107Z,-1.50
2019-02-18T06:43:34.583Z,-1.50
2019-02-18T06:48:45.097Z,-1.50
2019-02-18T06:53:50.575Z,-1.50
2019-02-18T06:59:00.220Z,-1.50
2019-02-18T07:04:11.124Z,-1.40
2019-02-18T07:09:20.958Z,-1.30
2019-02-18T07:14:26.718Z,-1.30
2019-02-18T07:19:32.580Z,-1.20
2019-02-18T07:24:37.972Z,-1.10
2019-02-18T07:29:43.866Z,-1.10
2019-02-18T07:34:49.662Z,-0.90
2019-02-18T07:40:01.643Z,-0.80
2019-02-18T07:45:00.667Z,-0.70
2019-02-18T07:50:07.519Z,-0.60
2019-02-18T07:55:12.991Z,-0.50
2019-02-18T08:00:19.197Z,-0.30
2019-02-18T08:05:25.594Z,0.00
2019-02-18T08:10:31.570Z,0.20
2019-02-18T08:15:37.057Z,0.50
2019-02-18T08:20:42.542Z,0.90
2019-02-18T08:25:48.005Z,1.20
2019-02-18T08:30:54.128Z,1.50
2019-02-18T08:35:59.683Z,1.80
2019-02-18T08:41:05.284Z,2.10
2019-02-18T08:46:10.823Z,2.40
2019-02-18T08:51:16.365Z,2.60
2019-02-18T08:56:21.809Z,3.00
2019-02-18T09:01:27.639Z,3.50
2019-02-18T09:06:33.471Z,3.80
2019-02-18T09:11:38.906Z,4.10
2019-02-18T09:16:44.425Z,4.40
2019-02-18T09:21:50.200Z,4.60
2019-02-18T09:26:56.399Z,4.80
2019-02-18T09:32:02.086Z,5.00
2019-02-18T09:37:07.895Z,5.30
2019-02-18T09:42:13.984Z,5.50
2019-02-18T09:47:19.392Z,5.70
2019-02-18T09:52:25.248Z,6.10
2019-02-18T09:57:30.721Z,6.40
2019-02-18T10:02:36.180Z,6.80
2019-02-18T10:07:41.685Z,7.10
2019-02-18T10:12:47.532Z,7.40
2019-02-18T10:17:52.997Z,7.90
2019-02-18T10:22:58.434Z,8.20
2019-02-18T10:28:04.403Z,8.60
2019-02-18T10:33:10.204Z,8.90
2019-02-18T10:38:16.075Z,9.30
2019-02-18T10:43:30.150Z,9.80
2019-02-18T10:48:27.091Z,10.10
2019-02-18T10:53:32.651Z,10.50
2019-02-18T10:58:38.170Z,11.00
2019-02-18T11:03:43.719Z,11.30
2019-02-18T11:08:49.582Z,11.80
2019-02-18T11:13:55.111Z,12.20
2019-02-18T11:19:00.863Z,12.20
2019-02-18T11:24:06.887Z,12.50
2019-02-18T11:29:12.399Z,12.90
2019-02-18T11:34:17.966Z,13.20
2019-02-18T11:39:23.509Z,13.20
2019-02-18T11:44:35.680Z,13.60
2019-02-18T11:49:41.150Z,14.00
2019-02-18T11:54:46.664Z,14.30
2019-02-18T11:59:52.456Z,14.50
2019-02-18T12:04:57.955Z,14.90
2019-02-18T12:10:03.652Z,14.60
2019-02-18T12:15:13.508Z,15.00
2019-02-18T12:20:25.300Z,15.10
2019-02-18T12:25:30.787Z,15.10
2019-02-18T12:30:36.278Z,15.20
2019-02-18T12:35:42.271Z,15.50
2019-02-18T12:40:48.470Z,15.90
2019-02-18T12:45:53.963Z,16.00
2019-02-18T12:50:59.462Z,15.90
2019-02-18T12:56:05.746Z,16.20
2019-02-18T13:01:11.715Z,16.10
2019-02-18T13:06:17.518Z,16.00
2019-02-18T13:11:23.648Z,16.00
2019-02-18T13:16:29.575Z,16.10
2019-02-18T13:21:35.586Z,16.30
2019-02-18T13:26:41.478Z,16.10
2019-02-18T13:31:47.304Z,16.30
2019-02-18T13:36:52.772Z,16.50
2019-02-18T13:41:58.278Z,16.40
2019-02-18T13:47:04.191Z,16.20
2019-02-18T13:52:10.089Z,15.90
2019-02-18T13:57:15.928Z,15.90
2019-02-18T14:02:21.847Z,16.10
2019-02-18T14:07:27.679Z,16.00
2019-02-18T14:12:33.502Z,15.80
2019-02-18T14:17:39.675Z,15.50
2019-02-18T14:22:45.141Z,15.50
2019-02-18T14:27:50.639Z,15.70
2019-02-18T14:32:56.428Z,15.20
2019-02-18T14:38:02.284Z,15.20
2019-02-18T14:43:08.469Z,15.00
2019-02-18T14:48:13.947Z,15.10
2019-02-18T14:53:19.733Z,14.70
2019-02-18T14:58:26.030Z,14.20
2019-02-18T15:03:32.058Z,13.80
2019-02-18T15:08:37.679Z,13.90
2019-02-18T15:13:43.303Z,13.70
2019-02-18T15:18:48.742Z,13.30
2019-02-18T15:23:54.551Z,12.80
2019-02-18T15:29:00.429Z,12.90
2019-02-18T15:34:06.347Z,11.90
2019-02-18T15:39:12.595Z,11.30
2019-02-18T15:44:18.500Z,10.80
2019-02-18T15:49:23.990Z,10.50
2019-02-18T15:54:30.846Z,10.10
2019-02-18T15:59:36.355Z,9.80
2019-02-18T16:04:41.855Z,9.40
2019-02-18T16:09:47.362Z,9.10
2019-02-18T16:14:52.936Z,8.80
2019-02-18T16:19:58.475Z,8.50
2019-02-18T16:25:04.439Z,8.30
2019-02-18T16:30:13.179Z,7.90
2019-02-18T16:35:19.756Z,7.70
2019-02-18T16:40:25.221Z,7.40
2019-02-18T16:45:30.796Z,7.20
2019-02-18T16:50:36.931Z,7.00
2019-02-18T16:55:42.407Z,6.80
2019-02-18T17:00:48.323Z,6.60
2019-02-18T17:05:53.819Z,6.30
2019-02-18T17:10:59.379Z,6.10
2019-02-18T17:16:04.883Z,6.00
2019-02-18T17:21:10.460Z,5.80
2019-02-18T17:26:16.347Z,5.60
2019-02-18T17:31:22.138Z,5.60
2019-02-18T17:36:27.575Z,5.30
2019-02-18T17:41:33.093Z,5.20
2019-02-18T17:46:38.742Z,5.10
2019-02-18T17:51:44.212Z,4.90
2019-02-18T17:56:51.058Z,4.80
2019-02-18T18:01:56.514Z,4.70
2019-02-18T18:07:01.974Z,4.50
2019-02-18T18:12:08.653Z,4.40
2019-02-18T18:17:14.511Z,4.30
2019-02-18T18:22:20.099Z,4.30
2019-02-18T18:27:26.130Z,4.10
2019-02-18T18:32:32.461Z,4.00
2019-02-18T18:37:38.300Z,3.90
2019-02-18T18:42:44.575Z,3.80
2019-02-18T18:47:50.595Z,3.70
2019-02-18T18:52:56.733Z,3.60
2019-02-18T18:58:02.667Z,3.40
2019-02-18T19:03:08.115Z,3.30
2019-02-18T19:08:13.575Z,3.20
2019-02-18T19:13:19.407Z,3.00
2019-02-18T19:18:25.223Z,2.90
2019-02-18T19:23:31.271Z,2.80
2019-02-18T19:28:36.735Z,2.70
2019-02-18T19:33:42.205Z,2.70
2019-02-18T19:38:47.654Z,2.70
2019-02-18T19:43:53.139Z,2.50
2019-02-18T19:48:58.995Z,2.30
2019-02-18T19:54:04.887Z,2.30
2019-02-18T19:59:10.342Z,2.30
2019-02-18T20:04:15.788Z,2.20
2019-02-18T20:09:21.613Z,2.30
2019-02-18T20:14:27.108Z,2.10
2019-02-18T20:19:32.584Z,2.00
2019-02-18T20:24:38.078Z,2.00
2019-02-18T20:29:43.904Z,1.80
2019-02-18T20:34:49.423Z,1.70
2019-02-18T20:39:55.219Z,1.70
2019-02-18T20:45:00.783Z,1.60
2019-02-18T20:50:07.350Z,1.50
2019-02-18T20:55:13.436Z,1.40
2019-02-18T21:00:20.232Z,1.40
2019-02-18T21:05:25.714Z,1.30
2019-02-18T21:10:31.680Z,1.30
2019-02-18T21:15:38.010Z,1.30
2019-02-18T21:20:43.946Z,1.30
2019-02-18T21:25:49.580Z,1.20
2019-02-18T21:30:55.379Z,1.10
2019-02-18T21:36:00.880Z,1.00
2019-02-18T21:41:12.832Z,1.10
2019-02-18T21:46:18.378Z,0.90
2019-02-18T21:51:24.065Z,0.80
2019-02-18T21:56:29.519Z,0.70
2019-02-18T22:01:35.336Z,0.70
2019-02-18T22:06:40.850Z,0.70
2019-02-18T22:11:46.349Z,0.50
2019-02-18T22:16:51.974Z,0.50
2019-02-18T22:21:57.846Z,0.50
2019-02-18T22:27:03.648Z,0.50
2019-02-18T22:32:09.906Z,0.50
2019-02-18T22:37:15.367Z,0.40
2019-02-18T22:42:21.228Z,0.40
2019-02-18T22:47:26.690Z,0.40
2019-02-18T22:52:32.200Z,0.50
2019-02-18T22:57:37.978Z,0.30
2019-02-18T23:02:45.427Z,0.40
2019-02-18T23:07:50.916Z,0.30
2019-02-18T23:12:56.377Z,0.40
2019-02-18T23:18:02.214Z,0.30
2019-02-18T23:23:07.743Z,0.20
2019-02-18T23:28:14.238Z,0.00
2019-02-18T23:33:19.712Z,0.10
2019-02-18T23:38:25.173Z,0.00
2019-02-18T23:43:30.845Z,-0.10
2019-02-18T23:48:36.311Z,-0.20
2019-02-18T23:53:42.471Z,-0.10
2019-02-18T23:58:47.947Z,-0.10
